Metar z połowy godziny Komunikat METAR ze strony awiacja.imgw.pl Metar G30 EPLL METAR EPLL 200330Z 26014KT 9999 SCT016 BKN034 05/02 Q1015 =